Zwettl, Austria

10:23 PM CEST on June 28, 2016 (GMT +0200)
Kesselbodengasse | Change Station
CLOSE
Current Station
Personal Weather Station
Location: Zwettl,
Elevation: 1811 ft
Nearby Weather Stations

Elev 1811 ft 48.61 °N, 15.17 °E | Updated 3 minutes ago

Clear
Clear
62.4 °F
Feels Like 62.4 °F
N
-
Wind Variable Wind from North

Today
High -- | Low -- °F
--% Chance of Precip.
Yesterday
High -- | Low -- °F
Precip. -- in
4:59 AM 9:05 PM
Last Quarter, 38% visible
Pressure 30.06 in
Visibility -9999.0 miles
Clouds
Dew Point 54 °F
Humidity 75%
Rainfall 0.00 in
Snow Depth Not available.
UV Not available.
Pollen Not available.
Air Quality Not available.
Flu Activity Not available.
METAR LKNA 282000Z 08002KT CAVOK 20/11 Q1018 NOSIG RMK BLU BLU

More Conditions Fewer Conditions

Pressure 30.06 in
Visibility -9999.0 miles
Clouds
Dew Point 54 °F
Humidity 75%
Rainfall 0.00 in
Snow Depth Not available.
UV Not available.
Pollen Not available.
Air Quality Not available.
Flu Activity Not available.
METAR LKNA 282000Z 08002KT CAVOK 20/11 Q1018 NOSIG RMK BLU BLU

More Conditions Fewer Conditions

10-Day Weather Forecast

Almanac

Astronomy

Jun. 28, 2016 Rise Set
Actual Time 4:59 AM CEST 9:05 PM CEST
Civil Twilight 4:17 AM CEST 9:47 PM CEST
Nautical Twilight 3:17 AM CEST 10:46 PM CEST
Astronomical Twilight 1:20 AM CEST 12:40 AM CEST
Moon 1:03 AM CEST 1:54 PM CEST
Length of Visible Light 17h 30m
Length of Day
16h 06m
Tomorrow will be 0m 42s shorter.
Last Quarter, 38% of the Moon is Illuminated
Today
Last Quarter
Jul 4
New
Jul 11
First Quarter
Jul 19
Full
Jul 26
Last Quarter

Today's Extremes

Country Highs Country Lows

Community

WunderPhotos

Upload Photos

1,921,350 photos uploaded!

Nearby

Snow Depth

Not available.

Earthquake Activity

City Distance Mag. Time & Date
No recent earthquake activity has been reported nearby.
Minimum magnitude displayed is 2.5.

Coastal Water Temperatures

Place Temperature
No Stations Reporting

Nearby Weather Stations